sensor_id;sensor_type;location;lat;lon;timestamp;P1;durP1;ratioP1;P2;durP2;ratioP2
7193;SDS011;3638;48.820;9.244;2023-12-29T00:00:56;3.27;;;2.97;;
7193;SDS011;3638;48.820;9.244;2023-12-29T00:03:23;3.50;;;3.20;;
7193;SDS011;3638;48.820;9.244;2023-12-29T00:05:50;3.57;;;3.27;;
7193;SDS011;3638;48.820;9.244;2023-12-29T00:08:18;4.30;;;3.37;;
7193;SDS011;3638;48.820;9.244;2023-12-29T00:10:46;3.13;;;2.93;;
7193;SDS011;3638;48.820;9.244;2023-12-29T00:13:13;3.73;;;3.43;;
7193;SDS011;3638;48.820;9.244;2023-12-29T00:15:40;4.10;;;3.30;;
7193;SDS011;3638;48.820;9.244;2023-12-29T00:18:07;3.57;;;3.27;;
7193;SDS011;3638;48.820;9.244;2023-12-29T00:20:35;3.50;;;3.20;;
7193;SDS011;3638;48.820;9.244;2023-12-29T00:23:02;3.43;;;3.13;;
7193;SDS011;3638;48.820;9.244;2023-12-29T00:25:31;3.90;;;3.20;;
7193;SDS011;3638;48.820;9.244;2023-12-29T00:27:58;3.33;;;3.03;;
7193;SDS011;3638;48.820;9.244;2023-12-29T00:30:25;3.30;;;3.00;;
7193;SDS011;3638;48.820;9.244;2023-12-29T00:32:53;4.30;;;3.37;;
7193;SDS011;3638;48.820;9.244;2023-12-29T00:35:20;3.70;;;2.93;;
7193;SDS011;3638;48.820;9.244;2023-12-29T00:37:47;3.37;;;3.17;;
7193;SDS011;3638;48.820;9.244;2023-12-29T00:40:15;2.90;;;2.70;;
7193;SDS011;3638;48.820;9.244;2023-12-29T00:42:44;4.13;;;3.13;;
7193;SDS011;3638;48.820;9.244;2023-12-29T00:45:11;3.37;;;3.07;;
7193;SDS011;3638;48.820;9.244;2023-12-29T00:47:38;3.30;;;3.00;;
7193;SDS011;3638;48.820;9.244;2023-12-29T00:50:06;3.63;;;3.33;;
7193;SDS011;3638;48.820;9.244;2023-12-29T00:52:33;3.10;;;2.90;;
7193;SDS011;3638;48.820;9.244;2023-12-29T00:55:01;3.30;;;3.00;;
7193;SDS011;3638;48.820;9.244;2023-12-29T00:57:29;3.50;;;3.20;;
7193;SDS011;3638;48.820;9.244;2023-12-29T00:59:57;3.27;;;2.97;;
7193;SDS011;3638;48.820;9.244;2023-12-29T01:02:26;3.20;;;2.90;;
7193;SDS011;3638;48.820;9.244;2023-12-29T01:04:53;3.70;;;3.10;;
7193;SDS011;3638;48.820;9.244;2023-12-29T01:07:20;3.40;;;3.10;;
7193;SDS011;3638;48.820;9.244;2023-12-29T01:09:47;3.70;;;3.17;;
7193;SDS011;3638;48.820;9.244;2023-12-29T01:12:15;3.30;;;2.90;;
7193;SDS011;3638;48.820;9.244;2023-12-29T01:14:42;3.40;;;3.10;;
7193;SDS011;3638;48.820;9.244;2023-12-29T01:17:10;5.60;;;2.80;;
7193;SDS011;3638;48.820;9.244;2023-12-29T01:19:38;3.67;;;3.20;;
7193;SDS011;3638;48.820;9.244;2023-12-29T01:22:05;3.30;;;3.00;;
7193;SDS011;3638;48.820;9.244;2023-12-29T01:24:32;3.47;;;2.90;;
7193;SDS011;3638;48.820;9.244;2023-12-29T01:26:59;4.30;;;3.13;;
7193;SDS011;3638;48.820;9.244;2023-12-29T01:29:29;3.30;;;3.10;;
7193;SDS011;3638;48.820;9.244;2023-12-29T01:31:56;3.53;;;3.23;;
7193;SDS011;3638;48.820;9.244;2023-12-29T01:34:24;3.30;;;3.10;;
7193;SDS011;3638;48.820;9.244;2023-12-29T01:36:57;5.07;;;3.27;;
7193;SDS011;3638;48.820;9.244;2023-12-29T01:39:24;3.60;;;3.30;;
7193;SDS011;3638;48.820;9.244;2023-12-29T01:41:51;3.20;;;3.00;;
7193;SDS011;3638;48.820;9.244;2023-12-29T01:44:19;3.47;;;3.17;;
7193;SDS011;3638;48.820;9.244;2023-12-29T01:46:47;4.20;;;3.07;;
7193;SDS011;3638;48.820;9.244;2023-12-29T01:49:17;3.70;;;3.40;;
7193;SDS011;3638;48.820;9.244;2023-12-29T01:51:48;3.27;;;2.90;;
7193;SDS011;3638;48.820;9.244;2023-12-29T01:54:16;3.50;;;3.20;;
7193;SDS011;3638;48.820;9.244;2023-12-29T01:56:44;3.50;;;3.20;;
7193;SDS011;3638;48.820;9.244;2023-12-29T01:59:12;3.53;;;3.23;;
7193;SDS011;3638;48.820;9.244;2023-12-29T02:01:39;4.00;;;3.60;;
7193;SDS011;3638;48.820;9.244;2023-12-29T02:04:07;3.87;;;3.50;;
7193;SDS011;3638;48.820;9.244;2023-12-29T02:06:35;3.97;;;3.40;;
7193;SDS011;3638;48.820;9.244;2023-12-29T02:09:03;5.13;;;3.30;;
7193;SDS011;3638;48.820;9.244;2023-12-29T02:11:31;3.50;;;3.20;;
7193;SDS011;3638;48.820;9.244;2023-12-29T02:13:58;3.80;;;3.50;;
7193;SDS011;3638;48.820;9.244;2023-12-29T02:16:28;3.77;;;3.47;;
7193;SDS011;3638;48.820;9.244;2023-12-29T02:19:00;3.87;;;3.57;;
7193;SDS011;3638;48.820;9.244;2023-12-29T02:21:30;3.80;;;3.47;;
7193;SDS011;3638;48.820;9.244;2023-12-29T02:23:57;4.00;;;3.60;;
7193;SDS011;3638;48.820;9.244;2023-12-29T02:26:26;4.03;;;3.53;;
7193;SDS011;3638;48.820;9.244;2023-12-29T02:28:57;4.70;;;3.57;;
7193;SDS011;3638;48.820;9.244;2023-12-29T02:31:28;3.90;;;3.30;;
7193;SDS011;3638;48.820;9.244;2023-12-29T02:33:56;5.13;;;3.53;;
7193;SDS011;3638;48.820;9.244;2023-12-29T02:36:24;3.43;;;3.13;;
7193;SDS011;3638;48.820;9.244;2023-12-29T02:38:51;4.27;;;3.50;;
7193;SDS011;3638;48.820;9.244;2023-12-29T02:41:19;4.93;;;3.70;;
7193;SDS011;3638;48.820;9.244;2023-12-29T02:43:48;4.67;;;3.60;;
7193;SDS011;3638;48.820;9.244;2023-12-29T02:46:15;4.03;;;3.73;;
7193;SDS011;3638;48.820;9.244;2023-12-29T02:48:43;4.17;;;3.83;;
7193;SDS011;3638;48.820;9.244;2023-12-29T02:51:10;4.00;;;3.60;;
7193;SDS011;3638;48.820;9.244;2023-12-29T02:53:37;4.07;;;3.67;;
7193;SDS011;3638;48.820;9.244;2023-12-29T02:56:05;4.47;;;3.50;;
7193;SDS011;3638;48.820;9.244;2023-12-29T02:58:32;4.10;;;3.10;;
7193;SDS011;3638;48.820;9.244;2023-12-29T03:01:00;3.47;;;3.20;;
7193;SDS011;3638;48.820;9.244;2023-12-29T03:03:28;4.27;;;3.60;;
7193;SDS011;3638;48.820;9.244;2023-12-29T03:05:55;4.00;;;3.70;;
7193;SDS011;3638;48.820;9.244;2023-12-29T03:08:22;3.70;;;3.40;;
7193;SDS011;3638;48.820;9.244;2023-12-29T03:10:49;5.07;;;3.53;;
7193;SDS011;3638;48.820;9.244;2023-12-29T03:13:16;4.03;;;3.57;;
7193;SDS011;3638;48.820;9.244;2023-12-29T03:15:44;5.67;;;3.93;;
7193;SDS011;3638;48.820;9.244;2023-12-29T03:18:12;4.20;;;3.80;;
7193;SDS011;3638;48.820;9.244;2023-12-29T03:20:39;3.63;;;3.30;;
7193;SDS011;3638;48.820;9.244;2023-12-29T03:23:07;3.53;;;3.23;;
7193;SDS011;3638;48.820;9.244;2023-12-29T03:25:34;3.67;;;3.37;;
7193;SDS011;3638;48.820;9.244;2023-12-29T03:28:01;3.90;;;3.60;;
7193;SDS011;3638;48.820;9.244;2023-12-29T03:30:28;3.77;;;3.47;;
7193;SDS011;3638;48.820;9.244;2023-12-29T03:32:56;3.80;;;3.50;;
7193;SDS011;3638;48.820;9.244;2023-12-29T03:35:24;3.87;;;3.43;;
7193;SDS011;3638;48.820;9.244;2023-12-29T03:37:51;5.27;;;3.70;;
7193;SDS011;3638;48.820;9.244;2023-12-29T03:40:19;4.03;;;3.50;;
7193;SDS011;3638;48.820;9.244;2023-12-29T03:42:46;3.77;;;3.47;;
7193;SDS011;3638;48.820;9.244;2023-12-29T03:45:13;5.97;;;4.00;;
7193;SDS011;3638;48.820;9.244;2023-12-29T03:47:40;4.10;;;3.77;;
7193;SDS011;3638;48.820;9.244;2023-12-29T03:50:08;3.93;;;3.63;;
7193;SDS011;3638;48.820;9.244;2023-12-29T03:52:36;4.10;;;3.70;;
7193;SDS011;3638;48.820;9.244;2023-12-29T03:55:04;4.63;;;3.90;;
7193;SDS011;3638;48.820;9.244;2023-12-29T03:57:33;3.80;;;3.50;;
7193;SDS011;3638;48.820;9.244;2023-12-29T04:00:00;4.77;;;4.07;;
7193;SDS011;3638;48.820;9.244;2023-12-29T04:02:27;4.20;;;3.50;;
7193;SDS011;3638;48.820;9.244;2023-12-29T04:04:55;3.93;;;3.50;;
7193;SDS011;3638;48.820;9.244;2023-12-29T04:07:22;3.50;;;3.20;;
7193;SDS011;3638;48.820;9.244;2023-12-29T04:09:50;3.33;;;3.03;;
7193;SDS011;3638;48.820;9.244;2023-12-29T04:12:17;3.60;;;3.30;;
7193;SDS011;3638;48.820;9.244;2023-12-29T04:14:45;3.53;;;3.20;;
7193;SDS011;3638;48.820;9.244;2023-12-29T04:17:12;3.80;;;3.50;;
7193;SDS011;3638;48.820;9.244;2023-12-29T04:19:39;3.37;;;3.17;;
7193;SDS011;3638;48.820;9.244;2023-12-29T04:22:07;4.33;;;3.27;;
7193;SDS011;3638;48.820;9.244;2023-12-29T04:24:34;3.33;;;3.03;;
7193;SDS011;3638;48.820;9.244;2023-12-29T04:27:05;3.53;;;3.23;;
7193;SDS011;3638;48.820;9.244;2023-12-29T04:29:33;3.50;;;3.20;;
7193;SDS011;3638;48.820;9.244;2023-12-29T04:32:00;3.37;;;3.07;;
7193;SDS011;3638;48.820;9.244;2023-12-29T04:34:27;3.07;;;2.87;;
7193;SDS011;3638;48.820;9.244;2023-12-29T04:36:54;3.60;;;3.30;;
7193;SDS011;3638;48.820;9.244;2023-12-29T04:39:21;3.00;;;2.80;;
7193;SDS011;3638;48.820;9.244;2023-12-29T04:41:49;3.43;;;3.13;;
7193;SDS011;3638;48.820;9.244;2023-12-29T04:44:18;3.60;;;3.30;;
7193;SDS011;3638;48.820;9.244;2023-12-29T04:46:46;3.57;;;3.33;;
7193;SDS011;3638;48.820;9.244;2023-12-29T04:49:13;3.67;;;3.20;;
7193;SDS011;3638;48.820;9.244;2023-12-29T04:51:41;3.53;;;3.23;;
7193;SDS011;3638;48.820;9.244;2023-12-29T04:54:08;3.30;;;3.10;;
7193;SDS011;3638;48.820;9.244;2023-12-29T04:56:35;3.30;;;3.00;;
7193;SDS011;3638;48.820;9.244;2023-12-29T04:59:02;3.30;;;3.10;;
7193;SDS011;3638;48.820;9.244;2023-12-29T05:01:31;3.43;;;3.13;;
7193;SDS011;3638;48.820;9.244;2023-12-29T05:03:58;3.50;;;3.20;;
7193;SDS011;3638;48.820;9.244;2023-12-29T05:06:25;3.30;;;3.10;;
7193;SDS011;3638;48.820;9.244;2023-12-29T05:08:53;4.00;;;3.13;;
7193;SDS011;3638;48.820;9.244;2023-12-29T05:11:20;3.20;;;2.90;;
7193;SDS011;3638;48.820;9.244;2023-12-29T05:13:48;3.83;;;3.00;;
7193;SDS011;3638;48.820;9.244;2023-12-29T05:16:15;3.37;;;3.03;;
7193;SDS011;3638;48.820;9.244;2023-12-29T05:18:43;3.40;;;3.10;;
7193;SDS011;3638;48.820;9.244;2023-12-29T05:21:14;3.30;;;3.10;;
7193;SDS011;3638;48.820;9.244;2023-12-29T05:23:41;3.40;;;3.10;;
7193;SDS011;3638;48.820;9.244;2023-12-29T05:26:09;3.13;;;2.93;;
7193;SDS011;3638;48.820;9.244;2023-12-29T05:28:36;3.43;;;3.13;;
7193;SDS011;3638;48.820;9.244;2023-12-29T05:31:03;4.23;;;3.30;;
7193;SDS011;3638;48.820;9.244;2023-12-29T05:33:31;4.40;;;3.43;;
7193;SDS011;3638;48.820;9.244;2023-12-29T05:36:05;4.03;;;3.30;;
7193;SDS011;3638;48.820;9.244;2023-12-29T05:38:33;3.33;;;3.03;;
7193;SDS011;3638;48.820;9.244;2023-12-29T05:41:01;3.63;;;3.33;;
7193;SDS011;3638;48.820;9.244;2023-12-29T05:43:30;4.03;;;3.70;;
7193;SDS011;3638;48.820;9.244;2023-12-29T05:45:58;3.60;;;3.30;;
7193;SDS011;3638;48.820;9.244;2023-12-29T05:48:26;3.77;;;3.47;;
7193;SDS011;3638;48.820;9.244;2023-12-29T05:50:53;3.50;;;3.20;;
7193;SDS011;3638;48.820;9.244;2023-12-29T05:53:22;4.43;;;4.03;;
7193;SDS011;3638;48.820;9.244;2023-12-29T05:55:49;3.70;;;3.40;;
7193;SDS011;3638;48.820;9.244;2023-12-29T05:58:16;4.10;;;3.70;;
7193;SDS011;3638;48.820;9.244;2023-12-29T06:00:43;4.87;;;3.67;;
7193;SDS011;3638;48.820;9.244;2023-12-29T06:03:10;4.53;;;3.60;;
7193;SDS011;3638;48.820;9.244;2023-12-29T06:05:38;4.30;;;3.40;;
7193;SDS011;3638;48.820;9.244;2023-12-29T06:08:05;4.00;;;3.40;;
7193;SDS011;3638;48.820;9.244;2023-12-29T06:10:35;4.13;;;3.73;;
7193;SDS011;3638;48.820;9.244;2023-12-29T06:13:02;4.17;;;3.80;;
7193;SDS011;3638;48.820;9.244;2023-12-29T06:15:30;4.10;;;3.80;;
7193;SDS011;3638;48.820;9.244;2023-12-29T06:17:57;3.90;;;3.60;;
7193;SDS011;3638;48.820;9.244;2023-12-29T06:20:25;4.27;;;3.77;;
7193;SDS011;3638;48.820;9.244;2023-12-29T06:22:52;4.40;;;3.60;;
7193;SDS011;3638;48.820;9.244;2023-12-29T06:25:19;4.17;;;3.67;;
7193;SDS011;3638;48.820;9.244;2023-12-29T06:27:48;4.23;;;3.83;;
7193;SDS011;3638;48.820;9.244;2023-12-29T06:30:16;4.07;;;3.77;;
7193;SDS011;3638;48.820;9.244;2023-12-29T06:32:43;4.77;;;4.27;;
7193;SDS011;3638;48.820;9.244;2023-12-29T06:35:10;4.83;;;4.30;;
7193;SDS011;3638;48.820;9.244;2023-12-29T06:37:38;4.50;;;4.10;;
7193;SDS011;3638;48.820;9.244;2023-12-29T06:40:06;4.40;;;3.90;;
7193;SDS011;3638;48.820;9.244;2023-12-29T06:42:34;4.13;;;3.80;;
7193;SDS011;3638;48.820;9.244;2023-12-29T06:45:03;4.27;;;3.93;;
7193;SDS011;3638;48.820;9.244;2023-12-29T06:47:33;5.57;;;4.20;;
7193;SDS011;3638;48.820;9.244;2023-12-29T06:50:00;4.47;;;4.07;;
7193;SDS011;3638;48.820;9.244;2023-12-29T06:52:28;4.63;;;3.70;;
7193;SDS011;3638;48.820;9.244;2023-12-29T06:54:59;3.73;;;3.40;;
7193;SDS011;3638;48.820;9.244;2023-12-29T06:57:26;5.13;;;3.87;;
7193;SDS011;3638;48.820;9.244;2023-12-29T06:59:53;3.90;;;3.60;;
7193;SDS011;3638;48.820;9.244;2023-12-29T07:02:22;4.10;;;3.70;;
7193;SDS011;3638;48.820;9.244;2023-12-29T07:04:49;4.03;;;3.70;;
7193;SDS011;3638;48.820;9.244;2023-12-29T07:07:16;3.90;;;3.60;;
7193;SDS011;3638;48.820;9.244;2023-12-29T07:09:44;4.07;;;3.67;;
7193;SDS011;3638;48.820;9.244;2023-12-29T07:12:11;4.97;;;3.30;;
7193;SDS011;3638;48.820;9.244;2023-12-29T07:14:38;3.83;;;3.47;;
7193;SDS011;3638;48.820;9.244;2023-12-29T07:17:07;4.07;;;3.60;;
7193;SDS011;3638;48.820;9.244;2023-12-29T07:19:36;3.90;;;3.50;;
7193;SDS011;3638;48.820;9.244;2023-12-29T07:22:03;3.40;;;3.10;;
7193;SDS011;3638;48.820;9.244;2023-12-29T07:24:31;3.80;;;3.30;;
7193;SDS011;3638;48.820;9.244;2023-12-29T07:27:00;4.07;;;3.50;;
7193;SDS011;3638;48.820;9.244;2023-12-29T07:29:27;3.63;;;3.27;;
7193;SDS011;3638;48.820;9.244;2023-12-29T07:31:54;4.07;;;3.30;;
7193;SDS011;3638;48.820;9.244;2023-12-29T07:34:21;3.40;;;3.10;;
7193;SDS011;3638;48.820;9.244;2023-12-29T07:36:50;3.30;;;3.00;;
7193;SDS011;3638;48.820;9.244;2023-12-29T07:39:18;3.73;;;3.20;;
7193;SDS011;3638;48.820;9.244;2023-12-29T07:41:45;3.43;;;3.13;;
7193;SDS011;3638;48.820;9.244;2023-12-29T07:44:13;3.30;;;3.10;;
7193;SDS011;3638;48.820;9.244;2023-12-29T07:46:40;3.10;;;2.90;;
7193;SDS011;3638;48.820;9.244;2023-12-29T07:49:09;3.33;;;3.03;;
7193;SDS011;3638;48.820;9.244;2023-12-29T07:51:38;3.23;;;2.93;;
7193;SDS011;3638;48.820;9.244;2023-12-29T07:54:07;3.03;;;2.83;;
7193;SDS011;3638;48.820;9.244;2023-12-29T07:56:35;3.00;;;2.80;;
7193;SDS011;3638;48.820;9.244;2023-12-29T07:59:02;3.30;;;3.00;;
7193;SDS011;3638;48.820;9.244;2023-12-29T08:01:31;3.37;;;2.87;;
7193;SDS011;3638;48.820;9.244;2023-12-29T08:03:58;3.40;;;3.10;;
7193;SDS011;3638;48.820;9.244;2023-12-29T08:06:25;3.33;;;3.03;;
7193;SDS011;3638;48.820;9.244;2023-12-29T08:08:53;3.20;;;2.90;;
7193;SDS011;3638;48.820;9.244;2023-12-29T08:11:22;3.43;;;2.93;;
7193;SDS011;3638;48.820;9.244;2023-12-29T08:13:49;3.23;;;2.80;;
7193;SDS011;3638;48.820;9.244;2023-12-29T08:16:16;3.30;;;3.00;;
7193;SDS011;3638;48.820;9.244;2023-12-29T08:18:44;3.17;;;2.87;;
7193;SDS011;3638;48.820;9.244;2023-12-29T08:21:16;3.38;;;3.08;;
7193;SDS011;3638;48.820;9.244;2023-12-29T08:23:44;3.37;;;3.07;;
7193;SDS011;3638;48.820;9.244;2023-12-29T08:26:12;2.90;;;2.70;;
7193;SDS011;3638;48.820;9.244;2023-12-29T08:28:40;3.00;;;2.80;;
7193;SDS011;3638;48.820;9.244;2023-12-29T08:31:07;2.80;;;2.60;;
7193;SDS011;3638;48.820;9.244;2023-12-29T08:33:35;2.97;;;2.77;;
7193;SDS011;3638;48.820;9.244;2023-12-29T08:36:02;3.37;;;3.07;;
7193;SDS011;3638;48.820;9.244;2023-12-29T08:38:31;4.50;;;3.07;;
7193;SDS011;3638;48.820;9.244;2023-12-29T08:40:59;3.00;;;2.80;;
7193;SDS011;3638;48.820;9.244;2023-12-29T08:43:29;3.23;;;2.60;;
7193;SDS011;3638;48.820;9.244;2023-12-29T08:45:58;3.17;;;2.87;;
7193;SDS011;3638;48.820;9.244;2023-12-29T08:48:25;3.10;;;2.80;;
7193;SDS011;3638;48.820;9.244;2023-12-29T08:50:56;3.73;;;2.93;;
7193;SDS011;3638;48.820;9.244;2023-12-29T08:53:26;3.50;;;3.20;;
7193;SDS011;3638;48.820;9.244;2023-12-29T08:55:56;3.77;;;3.03;;
7193;SDS011;3638;48.820;9.244;2023-12-29T08:58:23;3.73;;;3.43;;
7193;SDS011;3638;48.820;9.244;2023-12-29T09:00:50;3.20;;;3.00;;
7193;SDS011;3638;48.820;9.244;2023-12-29T09:03:19;4.97;;;3.80;;
7193;SDS011;3638;48.820;9.244;2023-12-29T09:05:46;4.73;;;3.90;;
7193;SDS011;3638;48.820;9.244;2023-12-29T09:08:13;4.33;;;3.60;;
7193;SDS011;3638;48.820;9.244;2023-12-29T09:10:41;3.47;;;3.10;;
7193;SDS011;3638;48.820;9.244;2023-12-29T09:13:09;3.60;;;3.13;;
7193;SDS011;3638;48.820;9.244;2023-12-29T09:15:36;4.97;;;3.30;;
7193;SDS011;3638;48.820;9.244;2023-12-29T09:18:04;3.60;;;3.30;;
7193;SDS011;3638;48.820;9.244;2023-12-29T09:20:33;3.37;;;3.07;;
7193;SDS011;3638;48.820;9.244;2023-12-29T09:23:00;4.47;;;2.93;;
7193;SDS011;3638;48.820;9.244;2023-12-29T09:25:28;3.97;;;3.20;;
7193;SDS011;3638;48.820;9.244;2023-12-29T09:27:55;3.80;;;2.80;;
7193;SDS011;3638;48.820;9.244;2023-12-29T09:30:22;3.23;;;2.90;;
7193;SDS011;3638;48.820;9.244;2023-12-29T09:32:50;3.33;;;3.03;;
7193;SDS011;3638;48.820;9.244;2023-12-29T09:35:17;3.17;;;2.87;;
7193;SDS011;3638;48.820;9.244;2023-12-29T09:37:47;2.80;;;2.60;;
7193;SDS011;3638;48.820;9.244;2023-12-29T09:40:14;3.20;;;2.70;;
7193;SDS011;3638;48.820;9.244;2023-12-29T09:42:42;2.77;;;2.57;;
7193;SDS011;3638;48.820;9.244;2023-12-29T09:45:11;3.00;;;2.80;;
7193;SDS011;3638;48.820;9.244;2023-12-29T09:47:39;2.57;;;2.37;;
7193;SDS011;3638;48.820;9.244;2023-12-29T09:50:07;2.70;;;2.50;;
7193;SDS011;3638;48.820;9.244;2023-12-29T09:52:37;2.60;;;2.40;;
7193;SDS011;3638;48.820;9.244;2023-12-29T09:55:09;2.50;;;2.30;;
7193;SDS011;3638;48.820;9.244;2023-12-29T09:57:37;2.80;;;2.40;;
7193;SDS011;3638;48.820;9.244;2023-12-29T10:00:05;3.00;;;2.67;;
7193;SDS011;3638;48.820;9.244;2023-12-29T10:02:33;2.50;;;2.30;;
7193;SDS011;3638;48.820;9.244;2023-12-29T10:05:01;2.53;;;2.23;;
7193;SDS011;3638;48.820;9.244;2023-12-29T10:07:31;2.43;;;2.23;;
7193;SDS011;3638;48.820;9.244;2023-12-29T10:10:01;2.50;;;2.30;;
7193;SDS011;3638;48.820;9.244;2023-12-29T10:12:31;2.53;;;2.33;;
7193;SDS011;3638;48.820;9.244;2023-12-29T10:15:01;2.50;;;2.30;;
7193;SDS011;3638;48.820;9.244;2023-12-29T10:17:34;2.13;;;2.03;;
7193;SDS011;3638;48.820;9.244;2023-12-29T10:20:08;2.20;;;2.10;;
7193;SDS011;3638;48.820;9.244;2023-12-29T10:22:45;2.50;;;2.30;;
7193;SDS011;3638;48.820;9.244;2023-12-29T10:25:14;3.50;;;2.50;;
7193;SDS011;3638;48.820;9.244;2023-12-29T10:27:43;2.70;;;2.20;;
7193;SDS011;3638;48.820;9.244;2023-12-29T10:30:10;2.40;;;2.20;;
7193;SDS011;3638;48.820;9.244;2023-12-29T10:32:38;2.27;;;2.17;;
7193;SDS011;3638;48.820;9.244;2023-12-29T10:35:09;2.50;;;2.30;;
7193;SDS011;3638;48.820;9.244;2023-12-29T10:37:36;2.60;;;2.33;;
7193;SDS011;3638;48.820;9.244;2023-12-29T10:40:05;2.63;;;2.30;;
7193;SDS011;3638;48.820;9.244;2023-12-29T10:42:33;2.53;;;2.33;;
7193;SDS011;3638;48.820;9.244;2023-12-29T10:45:05;2.60;;;2.40;;
7193;SDS011;3638;48.820;9.244;2023-12-29T10:47:33;2.60;;;2.40;;
7193;SDS011;3638;48.820;9.244;2023-12-29T10:50:01;2.67;;;2.47;;
7193;SDS011;3638;48.820;9.244;2023-12-29T10:52:29;2.47;;;2.27;;
7193;SDS011;3638;48.820;9.244;2023-12-29T10:55:04;4.63;;;3.10;;
7193;SDS011;3638;48.820;9.244;2023-12-29T10:57:32;2.60;;;2.30;;
7193;SDS011;3638;48.820;9.244;2023-12-29T10:59:59;2.30;;;2.10;;
7193;SDS011;3638;48.820;9.244;2023-12-29T11:02:28;2.50;;;2.30;;
7193;SDS011;3638;48.820;9.244;2023-12-29T11:05:02;2.30;;;2.20;;
7193;SDS011;3638;48.820;9.244;2023-12-29T11:07:31;2.00;;;1.90;;
7193;SDS011;3638;48.820;9.244;2023-12-29T11:10:00;2.50;;;2.30;;
7193;SDS011;3638;48.820;9.244;2023-12-29T11:12:29;1.90;;;1.80;;
7193;SDS011;3638;48.820;9.244;2023-12-29T11:14:58;2.23;;;2.03;;
7193;SDS011;3638;48.820;9.244;2023-12-29T11:17:25;2.00;;;1.90;;
7193;SDS011;3638;48.820;9.244;2023-12-29T11:19:54;2.53;;;2.33;;
7193;SDS011;3638;48.820;9.244;2023-12-29T11:22:22;2.40;;;2.20;;
7193;SDS011;3638;48.820;9.244;2023-12-29T11:24:50;2.10;;;1.90;;
7193;SDS011;3638;48.820;9.244;2023-12-29T11:27:18;2.00;;;1.90;;
7193;SDS011;3638;48.820;9.244;2023-12-29T11:29:45;2.27;;;2.00;;
7193;SDS011;3638;48.820;9.244;2023-12-29T11:32:15;2.10;;;1.90;;
7193;SDS011;3638;48.820;9.244;2023-12-29T11:34:46;2.60;;;2.40;;
7193;SDS011;3638;48.820;9.244;2023-12-29T11:37:21;2.47;;;2.27;;
7193;SDS011;3638;48.820;9.244;2023-12-29T11:39:56;3.30;;;1.90;;
7193;SDS011;3638;48.820;9.244;2023-12-29T11:42:35;1.90;;;1.80;;
7193;SDS011;3638;48.820;9.244;2023-12-29T11:47:52;1.73;;;1.63;;
7193;SDS011;3638;48.820;9.244;2023-12-29T11:50:26;2.20;;;2.10;;
7193;SDS011;3638;48.820;9.244;2023-12-29T11:52:57;2.20;;;1.90;;
7193;SDS011;3638;48.820;9.244;2023-12-29T11:55:27;2.00;;;1.90;;
7193;SDS011;3638;48.820;9.244;2023-12-29T11:57:56;1.80;;;1.70;;
7193;SDS011;3638;48.820;9.244;2023-12-29T12:00:42;2.70;;;2.00;;
7193;SDS011;3638;48.820;9.244;2023-12-29T12:03:14;2.00;;;1.90;;
7193;SDS011;3638;48.820;9.244;2023-12-29T12:05:46;1.90;;;1.80;;
7193;SDS011;3638;48.820;9.244;2023-12-29T12:08:27;2.47;;;2.00;;
7193;SDS011;3638;48.820;9.244;2023-12-29T12:10:56;2.50;;;1.80;;
7193;SDS011;3638;48.820;9.244;2023-12-29T12:13:42;1.60;;;1.50;;
7193;SDS011;3638;48.820;9.244;2023-12-29T12:16:10;1.70;;;1.60;;
7193;SDS011;3638;48.820;9.244;2023-12-29T12:19:12;1.90;;;1.80;;
7193;SDS011;3638;48.820;9.244;2023-12-29T12:21:40;1.80;;;1.70;;
7193;SDS011;3638;48.820;9.244;2023-12-29T12:24:08;2.03;;;1.93;;
7193;SDS011;3638;48.820;9.244;2023-12-29T12:26:36;1.93;;;1.83;;
7193;SDS011;3638;48.820;9.244;2023-12-29T12:29:03;1.87;;;1.77;;
7193;SDS011;3638;48.820;9.244;2023-12-29T12:31:31;2.00;;;1.80;;
7193;SDS011;3638;48.820;9.244;2023-12-29T12:33:59;3.00;;;2.20;;
7193;SDS011;3638;48.820;9.244;2023-12-29T12:36:26;2.77;;;2.57;;
7193;SDS011;3638;48.820;9.244;2023-12-29T12:38:54;1.90;;;1.80;;
7193;SDS011;3638;48.820;9.244;2023-12-29T12:41:23;2.30;;;2.10;;
7193;SDS011;3638;48.820;9.244;2023-12-29T12:43:54;1.93;;;1.80;;
7193;SDS011;3638;48.820;9.244;2023-12-29T12:46:23;1.87;;;1.77;;
7193;SDS011;3638;48.820;9.244;2023-12-29T12:48:51;2.00;;;1.80;;
7193;SDS011;3638;48.820;9.244;2023-12-29T12:51:18;2.00;;;1.90;;
7193;SDS011;3638;48.820;9.244;2023-12-29T12:53:46;1.97;;;1.87;;
7193;SDS011;3638;48.820;9.244;2023-12-29T12:56:14;1.90;;;1.80;;
7193;SDS011;3638;48.820;9.244;2023-12-29T12:58:43;1.93;;;1.83;;
7193;SDS011;3638;48.820;9.244;2023-12-29T13:01:11;2.00;;;1.90;;
7193;SDS011;3638;48.820;9.244;2023-12-29T13:03:38;2.03;;;1.93;;
7193;SDS011;3638;48.820;9.244;2023-12-29T13:06:06;2.00;;;1.90;;
7193;SDS011;3638;48.820;9.244;2023-12-29T13:08:34;2.40;;;2.10;;
7193;SDS011;3638;48.820;9.244;2023-12-29T13:11:01;1.97;;;1.87;;
7193;SDS011;3638;48.820;9.244;2023-12-29T13:13:35;2.33;;;2.10;;
7193;SDS011;3638;48.820;9.244;2023-12-29T13:16:05;2.47;;;2.00;;
7193;SDS011;3638;48.820;9.244;2023-12-29T13:18:32;1.93;;;1.83;;
7193;SDS011;3638;48.820;9.244;2023-12-29T13:21:00;2.97;;;1.70;;
7193;SDS011;3638;48.820;9.244;2023-12-29T13:23:29;3.03;;;1.80;;
7193;SDS011;3638;48.820;9.244;2023-12-29T13:25:56;1.90;;;1.80;;
7193;SDS011;3638;48.820;9.244;2023-12-29T13:28:25;1.97;;;1.87;;
7193;SDS011;3638;48.820;9.244;2023-12-29T13:30:53;1.80;;;1.70;;
7193;SDS011;3638;48.820;9.244;2023-12-29T13:33:25;2.30;;;2.10;;
7193;SDS011;3638;48.820;9.244;2023-12-29T13:35:56;1.90;;;1.80;;
7193;SDS011;3638;48.820;9.244;2023-12-29T13:38:33;2.00;;;1.90;;
7193;SDS011;3638;48.820;9.244;2023-12-29T13:41:04;2.23;;;2.00;;
7193;SDS011;3638;48.820;9.244;2023-12-29T13:43:33;1.90;;;1.80;;
7193;SDS011;3638;48.820;9.244;2023-12-29T13:46:03;2.30;;;1.83;;
7193;SDS011;3638;48.820;9.244;2023-12-29T13:48:32;2.00;;;1.90;;
7193;SDS011;3638;48.820;9.244;2023-12-29T13:51:00;2.80;;;1.90;;
7193;SDS011;3638;48.820;9.244;2023-12-29T13:53:27;2.10;;;2.00;;
7193;SDS011;3638;48.820;9.244;2023-12-29T13:56:04;2.93;;;1.90;;
7193;SDS011;3638;48.820;9.244;2023-12-29T13:58:32;2.20;;;2.10;;
7193;SDS011;3638;48.820;9.244;2023-12-29T14:01:00;2.33;;;2.13;;
7193;SDS011;3638;48.820;9.244;2023-12-29T14:03:30;2.57;;;2.20;;
7193;SDS011;3638;48.820;9.244;2023-12-29T14:06:03;2.20;;;2.10;;
7193;SDS011;3638;48.820;9.244;2023-12-29T14:08:33;2.30;;;2.10;;
7193;SDS011;3638;48.820;9.244;2023-12-29T14:11:06;2.60;;;2.40;;
7193;SDS011;3638;48.820;9.244;2023-12-29T14:13:34;2.10;;;1.90;;
7193;SDS011;3638;48.820;9.244;2023-12-29T14:16:01;2.00;;;1.90;;
7193;SDS011;3638;48.820;9.244;2023-12-29T14:18:35;2.97;;;2.10;;
7193;SDS011;3638;48.820;9.244;2023-12-29T14:21:23;2.30;;;2.10;;
7193;SDS011;3638;48.820;9.244;2023-12-29T14:24:05;2.30;;;2.10;;
7193;SDS011;3638;48.820;9.244;2023-12-29T14:26:34;2.40;;;2.20;;
7193;SDS011;3638;48.820;9.244;2023-12-29T14:29:02;2.00;;;1.90;;
7193;SDS011;3638;48.820;9.244;2023-12-29T14:31:30;2.20;;;1.80;;
7193;SDS011;3638;48.820;9.244;2023-12-29T14:34:00;2.10;;;1.90;;
7193;SDS011;3638;48.820;9.244;2023-12-29T14:36:28;1.93;;;1.83;;
7193;SDS011;3638;48.820;9.244;2023-12-29T14:38:55;2.00;;;1.90;;
7193;SDS011;3638;48.820;9.244;2023-12-29T14:41:23;2.00;;;1.90;;
7193;SDS011;3638;48.820;9.244;2023-12-29T14:43:50;2.00;;;1.90;;
7193;SDS011;3638;48.820;9.244;2023-12-29T14:46:17;3.57;;;2.50;;
7193;SDS011;3638;48.820;9.244;2023-12-29T14:48:44;2.20;;;2.00;;
7193;SDS011;3638;48.820;9.244;2023-12-29T14:51:13;2.43;;;2.10;;
7193;SDS011;3638;48.820;9.244;2023-12-29T14:53:42;2.13;;;1.93;;
7193;SDS011;3638;48.820;9.244;2023-12-29T14:56:10;2.63;;;1.90;;
7193;SDS011;3638;48.820;9.244;2023-12-29T14:58:41;2.17;;;1.97;;
7193;SDS011;3638;48.820;9.244;2023-12-29T15:01:11;2.23;;;2.00;;
7193;SDS011;3638;48.820;9.244;2023-12-29T15:03:38;4.83;;;4.43;;
7193;SDS011;3638;48.820;9.244;2023-12-29T15:06:09;16.27;;;10.70;;
7193;SDS011;3638;48.820;9.244;2023-12-29T15:08:40;20.93;;;13.17;;
7193;SDS011;3638;48.820;9.244;2023-12-29T15:11:07;15.53;;;11.23;;
7193;SDS011;3638;48.820;9.244;2023-12-29T15:13:36;5.00;;;4.43;;
7193;SDS011;3638;48.820;9.244;2023-12-29T15:16:04;7.77;;;6.17;;
7193;SDS011;3638;48.820;9.244;2023-12-29T15:18:34;5.00;;;3.50;;
7193;SDS011;3638;48.820;9.244;2023-12-29T15:21:02;2.20;;;2.00;;
7193;SDS011;3638;48.820;9.244;2023-12-29T15:23:30;3.47;;;3.03;;
7193;SDS011;3638;48.820;9.244;2023-12-29T15:25:59;2.27;;;2.10;;